STAZIONE METEO DI BARCELLONA P.G. CENTRO
Dati campionati ogni minuto da Consolle Davis Vantage Pro 2
ed inviati alla rete mediante server Anemos WDS5 wview



Barcellona P.G. Centro more information Barcellona P.G. Centro


Golfo di Patti more information Golfo di Patti


avvertimento per Temporali more information blitzortung!


avvertimento per Pioggia  rain snow radar


altri nostri siti meteo:

Rete NOAA MADIS

Italia Meteo Network

Pomeziameteo

Varazze Meteo



Ci sono vari avvisi meteo   Clicca qui per altre informazioni

Report METAR

   
LICF - Barcellona Pozzo di Gotto
Dati ricevuti: 25-06-2018 04:55
Nearby Thunderstorm, Pioggia leggera, Parzialmente nuvoloso  
Nearby Thunderstorm, Pioggia leggera, Parzialmente nuvoloso  
   Vento: NO 7.4 km/h
Vento: NO 7.4 km/h
Temperatura: 19°C
P.to Rugiada: 17°C
Umidità: 88%
Barometro: 1012 hPa
Nuvole: Parzialmente nuvoloso
Visibilità: oltre 10 km
dettagli cloud: Poche nuvole 2000 ft,
Parzialmente nuvoloso 2500 ft
LICF 250255Z 32004KT 9999 VCTS -RA FEW020CB SCT025 19/17 Q1012 RMK OVC BKN080 QUK / QUL / VIS MAR 12 KM MON INVIS NC VIS MIN 9999
LICC - Catania
Dati ricevuti: 25-06-2018 05:20
Molto nuvoloso  
Molto nuvoloso  
   Vento: NE 5.6 km/h
Vento: NE 5.6 km/h
Temperatura: 21°C
P.to Rugiada: 16°C
Umidità: 73%
Barometro: 1011 hPa
Nuvole: Molto nuvoloso
Visibilità: oltre 10 km
dettagli cloud: Parzialmente nuvoloso 2000 ft,
Molto nuvoloso 4000 ft
LICC 250320Z 03003KT 310V110 9999 SCT020 BKN040 21/16 Q1011
LICJ - Palermo
Dati ricevuti: 25-06-2018 05:20
Temporale, Poche nuvole  
Temporale, Poche nuvole  
   Vento: NE 13 km/h
Vento: NE 13 km/h
Temperatura: 23°C
P.to Rugiada: 17°C
Umidità: 69%
Barometro: 1012 hPa
Nuvole: Poche nuvole
Visibilità: oltre 10 km
dettagli cloud: Poche nuvole 2500 ft
LICJ 250320Z 07007KT 9999 TS FEW025CB 23/17 Q1012
LICF - Messina
Dati ricevuti: 25-06-2018 04:55
Nearby Thunderstorm, Pioggia leggera, Parzialmente nuvoloso  
Nearby Thunderstorm, Pioggia leggera, Parzialmente nuvoloso  
   Vento: NO 7.4 km/h
Vento: NO 7.4 km/h
Temperatura: 19°C
P.to Rugiada: 17°C
Umidità: 88%
Barometro: 1012 hPa
Nuvole: Parzialmente nuvoloso
Visibilità: oltre 10 km
dettagli cloud: Poche nuvole 2000 ft,
Parzialmente nuvoloso 2500 ft
LICF 250255Z 32004KT 9999 VCTS -RA FEW020CB SCT025 19/17 Q1012 RMK OVC BKN080 QUK / QUL / VIS MAR 12 KM MON INVIS NC VIS MIN 9999
LICC - Milazzo
Dati ricevuti: 25-06-2018 05:20
Molto nuvoloso  
Molto nuvoloso  
   Vento: NE 5.6 km/h
Vento: NE 5.6 km/h
Temperatura: 21°C
P.to Rugiada: 16°C
Umidità: 73%
Barometro: 1011 hPa
Nuvole: Molto nuvoloso
Visibilità: oltre 10 km
dettagli cloud: Parzialmente nuvoloso 2000 ft,
Molto nuvoloso 4000 ft
LICC 250320Z 03003KT 310V110 9999 SCT020 BKN040 21/16 Q1011
LICC - Terme Vigliatore
Dati ricevuti: 25-06-2018 05:20
Molto nuvoloso  
Molto nuvoloso  
   Vento: NE 5.6 km/h
Vento: NE 5.6 km/h
Temperatura: 21°C
P.to Rugiada: 16°C
Umidità: 73%
Barometro: 1011 hPa
Nuvole: Molto nuvoloso
Visibilità: oltre 10 km
dettagli cloud: Parzialmente nuvoloso 2000 ft,
Molto nuvoloso 4000 ft
LICC 250320Z 03003KT 310V110 9999 SCT020 BKN040 21/16 Q1011
LICT - Trapani
Dati ricevuti: 25-06-2018 05:10
Temporale, Parzialmente nuvoloso  
Temporale, Parzialmente nuvoloso  
   Vento: Variabile 3.7 km/h
Vento: Variabile 3.7 km/h
Temperatura: 22°C
P.to Rugiada: 18°C
Umidità: 78%
Barometro: 1011 hPa
Nuvole: Parzialmente nuvoloso
Visibilità: oltre 10 km
dettagli cloud: Poche nuvole 1200 ft,
Poche nuvole 1600 ft,
Parzialmente nuvoloso 2000 ft
LICT 250310Z VRB02KT 9999 TS FEW012 FEW016CB SCT020 22/18 Q1011 RETSRA RMK BKN BKN070 VIS MIN 8000S WIND THR13 06002KT BLU
  

Script sviluppato da  Saratoga-weather.org Adattato per il modello da  Weerstation Leuven

Potete trovare le nostre info meteo anche a:

European Weather Network

Weather Underground

AWEKAS

Citizen Weather Observer Program (CWOP)

HAMweather, WeatherForYou, PWS Weather

Strumentazione usata:

Stazione meteo
Davis VP2

Programma gestore dati meteo
WVIEW

Server per i dati meteo
WDS5 Ecoblack

Davis VP2

WVIEW

WDS5 Ecoblack